Time;durP1;ratioP1;P1;durP2;ratioP2;P2;SDS_P1;SDS_P2;PMS_P1;PMS_P2;Temp;Humidity;BMP_temperature;BMP_pressure;BME280_temperature;BME280_humidity;BME280_pressure;Samples;Min_cycle;Max_cycle;Signal;HPM_P1;HPM_P2
2020/01/11 00:02:01;;;;;;;7.5;4.7;;;;;;;5.62;74.4209;948.728;;;;
2020/01/11 00:11:25;;;;;;;10.6;6;;;;;;;5.45;75.71289;948.7684;;;;
2020/01/11 00:13:51;;;;;;;10.8;6.6;;;;;;;5.38;75.87891;948.8436;;;;
2020/01/11 00:16:16;;;;;;;12.1;6.7;;;;;;;5.41;76.10938;948.8681;;;;
2020/01/11 00:18:41;;;;;;;12.5;7.4;;;;;;;5.43;74.85156;948.8497;;;;
2020/01/11 00:21:06;;;;;;;11.7;7.5;;;;;;;5.5;74.47949;948.7612;;;;
2020/01/11 00:23:31;;;;;;;10.9;6.8;;;;;;;5.6;74.05664;948.8376;;;;
2020/01/11 00:25:56;;;;;;;10;6.2;;;;;;;5.68;73.4707;948.8514;;;;
2020/01/11 00:28:21;;;;;;;9.8;6.4;;;;;;;5.5;73.7666;948.8613;;;;
2020/01/11 00:30:46;;;;;;;11.6;6.5;;;;;;;5.43;74.35352;948.863;;;;
2020/01/11 00:33:12;;;;;;;10;6.3;;;;;;;5.45;75.09082;948.8513;;;;
2020/01/11 00:35:37;;;;;;;10.2;6.5;;;;;;;5.49;74.63379;948.9508;;;;
2020/01/11 00:38:02;;;;;;;10.9;6.9;;;;;;;5.48;74.75684;948.9639;;;;
2020/01/11 00:40:27;;;;;;;10.7;5.5;;;;;;;5.44;74.23145;948.9306;;;;
2020/01/11 00:42:52;;;;;;;9.2;6.1;;;;;;;5.46;73.88477;948.9281;;;;
2020/01/11 00:45:17;;;;;;;11.1;5.3;;;;;;;5.32;74.45801;949.043;;;;
2020/01/11 00:47:43;;;;;;;8.5;5.7;;;;;;;5.34;74.32715;949.113;;;;
2020/01/11 00:50:08;;;;;;;8.2;5.2;;;;;;;5.38;74.42383;949.0196;;;;
2020/01/11 00:52:33;;;;;;;8.8;5.2;;;;;;;5.43;74.07227;949.1274;;;;
2020/01/11 00:54:58;;;;;;;7.9;4.9;;;;;;;5.5;73.58594;949.2198;;;;
2020/01/11 00:57:23;;;;;;;9.2;5.2;;;;;;;5.52;73.73633;949.2177;;;;
2020/01/11 00:59:49;;;;;;;9;5.3;;;;;;;5.52;74.05371;949.307;;;;
2020/01/11 01:02:14;;;;;;;9.1;5.1;;;;;;;5.54;73.83105;949.3373;;;;
2020/01/11 01:04:39;;;;;;;7.7;4.7;;;;;;;5.57;74.33203;949.4276;;;;
2020/01/11 01:07:05;;;;;;;7.2;4.6;;;;;;;5.57;74.55859;949.4467;;;;
2020/01/11 01:09:38;;;;;;;8.1;4.6;;;;;;;5.38;74.33301;949.5172;;;;
2020/01/11 01:12:03;;;;;;;8.5;5.1;;;;;;;5.24;75.24414;949.5613;;;;
2020/01/11 01:14:28;;;;;;;9.5;5.3;;;;;;;5.3;75.0752;949.6099;;;;
2020/01/11 01:16:54;;;;;;;8;5.2;;;;;;;5.42;74.61035;949.6742;;;;
2020/01/11 01:19:19;;;;;;;9.2;5;;;;;;;5.52;74.93262;949.7065;;;;
2020/01/11 01:21:44;;;;;;;9;5.3;;;;;;;5.58;74.43555;949.7535;;;;
2020/01/11 01:24:10;;;;;;;8.9;5.3;;;;;;;5.44;74.85156;949.7488;;;;
2020/01/11 01:26:35;;;;;;;9.2;5.4;;;;;;;5.38;74.91016;949.7916;;;;
2020/01/11 01:29:00;;;;;;;10;5.4;;;;;;;5.43;75.05469;949.8717;;;;
2020/01/11 01:31:26;;;;;;;10.2;5.5;;;;;;;5.46;74.31348;949.9361;;;;
2020/01/11 01:33:51;;;;;;;10.2;5.2;;;;;;;5.48;74.21484;949.956;;;;
2020/01/11 01:36:16;;;;;;;9.2;5.2;;;;;;;5.27;75.08105;949.9885;;;;
2020/01/11 01:38:42;;;;;;;9.6;5.1;;;;;;;5.22;75.62598;950.1006;;;;
2020/01/11 01:41:07;;;;;;;8.1;4.8;;;;;;;5.13;75.99316;950.0381;;;;
2020/01/11 01:43:32;;;;;;;7.9;4.9;;;;;;;5.11;76.1709;949.9947;;;;
2020/01/11 01:45:57;;;;;;;8;4.9;;;;;;;5.13;76.24121;949.9064;;;;
2020/01/11 01:48:22;;;;;;;7.9;5;;;;;;;5.14;76.23145;950.0025;;;;
2020/01/11 01:50:48;;;;;;;7.5;5.2;;;;;;;5.16;76.62988;949.9662;;;;
2020/01/11 01:53:13;;;;;;;9.8;5.5;;;;;;;5.3;76.11426;949.8644;;;;
2020/01/11 01:55:38;;;;;;;9.4;5.5;;;;;;;5.37;76.18066;949.9211;;;;
2020/01/11 01:58:03;;;;;;;7.6;5.2;;;;;;;5.25;76.89355;949.9875;;;;
2020/01/11 02:00:28;;;;;;;8;5.1;;;;;;;5.23;77.37598;949.9508;;;;
2020/01/11 02:02:54;;;;;;;6.6;4.4;;;;;;;5.14;78.30664;949.9631;;;;
2020/01/11 02:05:19;;;;;;;7.1;4.7;;;;;;;5.24;78.52637;949.9339;;;;
2020/01/11 02:07:44;;;;;;;6.5;4.3;;;;;;;5.39;78.40723;949.9624;;;;
2020/01/11 02:10:10;;;;;;;4.3;3;;;;;;;5.36;82.125;949.9578;;;;
2020/01/11 02:12:35;;;;;;;4.6;2.4;;;;;;;5.55;82.85938;949.8833;;;;
2020/01/11 02:15:00;;;;;;;2.3;2.1;;;;;;;5.63;83.66699;949.9617;;;;
2020/01/11 02:17:25;;;;;;;3.7;2.7;;;;;;;5.69;83.67969;949.9662;;;;
2020/01/11 02:19:50;;;;;;;4.5;3;;;;;;;5.62;84.17383;949.9637;;;;
2020/01/11 02:22:15;;;;;;;4.4;3.1;;;;;;;;;;;;;
2020/01/11 02:24:41;;;;;;;4.4;3.3;;;;;;;;;;;;;
2020/01/11 02:27:06;;;;;;;5;3.9;;;;;;;;;;;;;
2020/01/11 02:29:31;;;;;;;4.9;3.9;;;;;;;;;;;;;
2020/01/11 02:32:19;;;;;;;5.8;4.9;;;;;;;;;;;;;
2020/01/11 02:34:42;;;;;;;6.2;5;;;;;;;;;;;;;
2020/01/11 02:36:48;;;;;;;6.4;4.8;;;;;;;;;;;;;
2020/01/11 02:39:12;;;;;;;5.3;4.8;;;;;;;;;;;;;
2020/01/11 02:41:36;;;;;;;6.3;4.9;;;;;;;;;;;;;
2020/01/11 02:44:01;;;;;;;5.3;4.8;;;;;;;;;;;;;
2020/01/11 02:46:26;;;;;;;6.1;5;;;;;;;;;;;;;
2020/01/11 02:48:52;;;;;;;7.6;5.1;;;;;;;;;;;;;
2020/01/11 02:51:17;;;;;;;6.4;4.9;;;;;;;;;;;;;
2020/01/11 02:53:42;;;;;;;7;5.1;;;;;;;;;;;;;
2020/01/11 02:56:07;;;;;;;5.6;5;;;;;;;;;;;;;
2020/01/11 02:58:32;;;;;;;6.4;4.7;;;;;;;;;;;;;
2020/01/11 03:00:57;;;;;;;6.9;4.8;;;;;;;;;;;;;
2020/01/11 03:03:22;;;;;;;6.4;5;;;;;;;;;;;;;
2020/01/11 03:05:47;;;;;;;6;5;;;;;;;;;;;;;
2020/01/11 03:08:12;;;;;;;6.9;4.7;;;;;;;;;;;;;
2020/01/11 03:10:38;;;;;;;6.3;4.6;;;;;;;;;;;;;
2020/01/11 03:13:03;;;;;;;6.3;4.8;;;;;;;;;;;;;
2020/01/11 03:15:28;;;;;;;5.7;4.7;;;;;;;;;;;;;
2020/01/11 03:17:53;;;;;;;6.4;4.6;;;;;;;;;;;;;
2020/01/11 03:20:18;;;;;;;6.1;4.6;;;;;;;;;;;;;
2020/01/11 03:22:43;;;;;;;6.6;4.8;;;;;;;;;;;;;
2020/01/11 03:25:08;;;;;;;6.7;4.5;;;;;;;;;;;;;
2020/01/11 03:27:33;;;;;;;5.5;4.4;;;;;;;;;;;;;
2020/01/11 03:29:58;;;;;;;5.7;4.3;;;;;;;;;;;;;
2020/01/11 03:32:23;;;;;;;5.1;4.2;;;;;;;;;;;;;
2020/01/11 03:34:48;;;;;;;5.1;4.3;;;;;;;;;;;;;
2020/01/11 03:37:14;;;;;;;4.2;3.4;;;;;;;;;;;;;
2020/01/11 03:39:39;;;;;;;4.5;3.3;;;;;;;;;;;;;
2020/01/11 03:42:04;;;;;;;4.6;3.5;;;;;;;;;;;;;
2020/01/11 03:44:29;;;;;;;3.4;2.9;;;;;;;;;;;;;
2020/01/11 03:46:54;;;;;;;3.5;2.7;;;;;;;;;;;;;
2020/01/11 03:49:19;;;;;;;3.2;2.5;;;;;;;;;;;;;
2020/01/11 03:51:44;;;;;;;2.7;2.3;;;;;;;;;;;;;
2020/01/11 03:54:09;;;;;;;3.3;2.2;;;;;;;;;;;;;
2020/01/11 03:56:34;;;;;;;2.4;2.1;;;;;;;;;;;;;
2020/01/11 03:59:00;;;;;;;2.8;2.4;;;;;;;;;;;;;
2020/01/11 04:02:30;;;;;;;3;2.2;;;;;;;6.08;81.41504;950.7968;;;;
2020/01/11 04:04:55;;;;;;;2.3;2.1;;;;;;;6.15;81.21582;950.8033;;;;
2020/01/11 04:07:20;;;;;;;4.7;2.6;;;;;;;5.95;81.52832;950.8714;;;;
2020/01/11 04:09:45;;;;;;;5.5;3.3;;;;;;;5.83;82.10254;950.8566;;;;
2020/01/11 04:12:10;;;;;;;5.7;4;;;;;;;5.78;82.53223;950.9304;;;;
2020/01/11 04:17:00;;;;;;;4.7;3.9;;;;;;;5.92;82.39063;950.9396;;;;
2020/01/11 04:19:25;;;;;;;5.1;3.5;;;;;;;5.81;82.85547;950.9637;;;;
2020/01/11 04:21:50;;;;;;;3;2.7;;;;;;;5.78;82.11621;951.0059;;;;
2020/01/11 04:24:16;;;;;;;3.1;2.1;;;;;;;5.89;80.95117;951.0119;;;;
2020/01/11 04:26:41;;;;;;;4.6;3.3;;;;;;;5.97;81.29395;950.9522;;;;
2020/01/11 04:29:06;;;;;;;4;2.6;;;;;;;6.05;81.17383;950.9752;;;;
2020/01/11 04:31:31;;;;;;;7.4;3.2;;;;;;;5.98;81.47559;950.9467;;;;
2020/01/11 04:33:56;;;;;;;4.1;3.2;;;;;;;5.9;81.4502;951.0176;;;;
2020/01/11 04:36:22;;;;;;;5;3.4;;;;;;;5.95;82.31738;950.845;;;;
2020/01/11 04:38:47;;;;;;;6.6;3.6;;;;;;;5.81;82.81055;950.9197;;;;
2020/01/11 04:41:12;;;;;;;4.6;3.8;;;;;;;5.86;82.97754;950.9716;;;;
2020/01/11 04:43:37;;;;;;;7.2;3.8;;;;;;;5.9;82.44434;951.012;;;;
2020/01/11 04:46:02;;;;;;;5.2;3.6;;;;;;;5.95;82.4541;950.979;;;;
2020/01/11 04:48:28;;;;;;;5.2;3.3;;;;;;;6.02;82.40039;950.9048;;;;
2020/01/11 04:50:53;;;;;;;5.1;4.3;;;;;;;5.98;82.93457;950.8103;;;;
2020/01/11 04:53:18;;;;;;;5.1;4;;;;;;;6.05;82.47168;950.8839;;;;
2020/01/11 04:55:43;;;;;;;9.2;4;;;;;;;6.04;82.43652;950.965;;;;
2020/01/11 04:58:08;;;;;;;8.8;4;;;;;;;6.04;82.20996;950.9562;;;;
2020/01/11 05:00:34;;;;;;;6.9;3.7;;;;;;;6.05;81.44336;950.9497;;;;
2020/01/11 05:03:02;;;;;;;4.9;3.7;;;;;;;6.09;81.35059;950.9604;;;;
2020/01/11 05:05:34;;;;;;;7.1;3.9;;;;;;;6.04;80.70898;951.0617;;;;
2020/01/11 05:07:49;;;;;;;4.2;3.5;;;;;;;6;80.38477;951.0435;;;;
2020/01/11 05:10:14;;;;;;;4.3;3.5;;;;;;;5.99;79.6709;950.98;;;;
2020/01/11 05:12:39;;;;;;;4;3.5;;;;;;;6.02;79.77734;950.9767;;;;
2020/01/11 05:15:04;;;;;;;4.7;3.6;;;;;;;6.09;79.67773;951.0648;;;;
2020/01/11 05:17:29;;;;;;;4.8;3.7;;;;;;;6.07;79.34668;951.1135;;;;
2020/01/11 05:19:54;;;;;;;4.2;3.6;;;;;;;6.06;79.23047;951.1516;;;;
2020/01/11 05:22:20;;;;;;;5;3.4;;;;;;;6.01;79.2002;951.1906;;;;
2020/01/11 05:24:45;;;;;;;5.2;3.4;;;;;;;6;79.39063;951.205;;;;
2020/01/11 05:27:10;;;;;;;4.4;3.3;;;;;;;5.81;80.08887;951.1544;;;;
2020/01/11 05:29:35;;;;;;;4;3.4;;;;;;;5.76;80.30469;951.1643;;;;
2020/01/11 05:32:01;;;;;;;4.5;3.6;;;;;;;5.76;80.22754;951.1234;;;;
2020/01/11 05:34:26;;;;;;;4;3.6;;;;;;;5.8;79.94043;951.2566;;;;
2020/01/11 05:39:17;;;;;;;4.7;3.7;;;;;;;5.92;79.66895;951.2858;;;;
2020/01/11 05:41:42;;;;;;;6.8;3.9;;;;;;;5.8;79.7373;951.2708;;;;
2020/01/11 05:44:07;;;;;;;4.7;4;;;;;;;5.86;79.52344;951.1647;;;;
2020/01/11 05:46:32;;;;;;;4.3;3.9;;;;;;;5.74;79.82715;951.1861;;;;
2020/01/11 05:48:58;;;;;;;5.9;4.5;;;;;;;5.64;80.48535;951.2374;;;;
2020/01/11 05:51:23;;;;;;;5;4.3;;;;;;;5.77;80.27246;951.2224;;;;
2020/01/11 05:53:48;;;;;;;6.9;4.8;;;;;;;5.7;80.47559;951.2871;;;;
2020/01/11 05:56:13;;;;;;;6;4.8;;;;;;;5.68;80.24609;951.2839;;;;
2020/01/11 05:58:38;;;;;;;6.5;4.7;;;;;;;5.75;80.47266;951.2435;;;;
2020/01/11 06:01:04;;;;;;;5.9;4.8;;;;;;;5.79;79.97266;951.1983;;;;
2020/01/11 06:03:29;;;;;;;5.3;4.8;;;;;;;5.86;80.07617;951.202;;;;
2020/01/11 06:05:54;;;;;;;6.2;4.8;;;;;;;5.87;80.39453;951.1722;;;;
2020/01/11 06:08:19;;;;;;;6.2;4.6;;;;;;;5.88;79.83105;951.2463;;;;
2020/01/11 06:10:44;;;;;;;6.4;5;;;;;;;5.89;80.00293;951.3566;;;;
2020/01/11 06:13:10;;;;;;;5.9;4.9;;;;;;;5.92;79.73633;951.3972;;;;
2020/01/11 06:15:35;;;;;;;6.9;5;;;;;;;5.87;80.14648;951.3549;;;;
2020/01/11 06:18:00;;;;;;;7.6;4.9;;;;;;;5.84;80.21973;951.4119;;;;
2020/01/11 06:20:25;;;;;;;8.5;5.1;;;;;;;5.89;80.04785;951.4562;;;;
2020/01/11 06:22:51;;;;;;;5.4;4.6;;;;;;;5.94;79.51367;951.447;;;;
2020/01/11 06:25:29;;;;;;;6.1;4.5;;;;;;;5.99;79.27344;951.4311;;;;
2020/01/11 06:27:54;;;;;;;6.1;4.9;;;;;;;6.03;78.74023;951.5022;;;;
2020/01/11 06:30:19;;;;;;;5.3;4.2;;;;;;;6.05;78.50586;951.572;;;;
2020/01/11 06:32:44;;;;;;;6.3;5;;;;;;;5.93;78.85742;951.6301;;;;
2020/01/11 06:35:09;;;;;;;7.2;5.2;;;;;;;5.97;79.15918;951.651;;;;
2020/01/11 06:37:34;;;;;;;6.8;5.1;;;;;;;6.06;79.0498;951.7289;;;;
2020/01/11 06:40:00;;;;;;;6.1;5.1;;;;;;;6.1;78.90039;951.8273;;;;
2020/01/11 06:42:25;;;;;;;6.5;5.2;;;;;;;6.07;79.45996;951.8365;;;;
2020/01/11 06:44:50;;;;;;;9.5;6.4;;;;;;;5.97;79.9834;951.825;;;;
2020/01/11 06:47:15;;;;;;;10.1;7.5;;;;;;;5.8;80.50391;951.913;;;;
2020/01/11 06:49:40;;;;;;;7;5.6;;;;;;;5.68;81.61035;951.9086;;;;
2020/01/11 06:52:05;;;;;;;9.7;5.9;;;;;;;5.65;81.93262;951.8924;;;;
2020/01/11 06:54:30;;;;;;;8.2;7.1;;;;;;;5.63;82.24512;951.9373;;;;
2020/01/11 06:56:55;;;;;;;10.2;6.8;;;;;;;5.74;81.76953;951.9796;;;;
2020/01/11 06:59:20;;;;;;;7.6;6.8;;;;;;;5.81;82.14453;951.991;;;;
2020/01/11 07:01:46;;;;;;;8.3;6.2;;;;;;;5.51;81.92871;952.0405;;;;
2020/01/11 07:04:11;;;;;;;7.4;6.1;;;;;;;5.63;81.5791;952.1238;;;;
2020/01/11 07:06:36;;;;;;;10.8;6.7;;;;;;;5.7;81.60254;952.1539;;;;
2020/01/11 07:09:01;;;;;;;12.3;9.2;;;;;;;5.79;81.29395;952.1508;;;;
2020/01/11 07:13:51;;;;;;;14.7;10.7;;;;;;;5.86;81.13672;952.1693;;;;
2020/01/11 07:16:17;;;;;;;13.9;10.4;;;;;;;5.9;81.33691;952.1852;;;;
2020/01/11 07:18:42;;;;;;;7.9;6;;;;;;;5.77;82.18066;952.1764;;;;
2020/01/11 07:21:07;;;;;;;10.1;8;;;;;;;5.49;82.75879;952.2173;;;;
2020/01/11 07:23:33;;;;;;;13.3;9;;;;;;;5.46;83.69238;952.223;;;;
2020/01/11 07:25:58;;;;;;;14.1;7.2;;;;;;;5.47;82.31543;952.1696;;;;
2020/01/11 07:28:23;;;;;;;19.4;8.1;;;;;;;5.53;82.91309;952.1339;;;;
2020/01/11 07:30:49;;;;;;;17.5;7.9;;;;;;;5.62;83;952.166;;;;
2020/01/11 07:33:14;;;;;;;12.3;6.5;;;;;;;5.67;82.69238;952.1594;;;;
2020/01/11 07:35:39;;;;;;;9.1;6.2;;;;;;;5.62;82.81934;952.1921;;;;
2020/01/11 07:38:05;;;;;;;12.4;6.6;;;;;;;5.55;82.89551;952.2078;;;;
2020/01/11 07:40:30;;;;;;;8.8;6.5;;;;;;;5.63;82.83203;952.2492;;;;
2020/01/11 07:42:55;;;;;;;10.4;6.3;;;;;;;5.7;82.4834;952.2905;;;;
2020/01/11 07:45:21;;;;;;;13.7;7.1;;;;;;;5.58;83.46484;952.3577;;;;
2020/01/11 07:47:46;;;;;;;11;7.5;;;;;;;5.66;82.79199;952.3574;;;;
2020/01/11 07:50:11;;;;;;;11.9;8.4;;;;;;;5.73;82.97754;952.3549;;;;
2020/01/11 07:52:36;;;;;;;10.5;7.8;;;;;;;5.75;82.45996;952.3967;;;;
2020/01/11 07:55:01;;;;;;;8.6;7;;;;;;;5.76;81.72754;952.3909;;;;
2020/01/11 07:57:27;;;;;;;8.5;6.5;;;;;;;5.87;80.52832;952.368;;;;
2020/01/11 07:59:52;;;;;;;8.8;7.1;;;;;;;5.92;80.77539;952.3029;;;;
2020/01/11 08:02:17;;;;;;;7.8;6.6;;;;;;;6.01;80.27148;952.493;;;;
2020/01/11 08:04:42;;;;;;;8.6;6.9;;;;;;;6.08;80.44336;952.4994;;;;
2020/01/11 08:07:07;;;;;;;8.6;6.8;;;;;;;6.13;80.19336;952.5231;;;;
2020/01/11 08:09:33;;;;;;;9.2;6.7;;;;;;;6.17;79.85156;952.5203;;;;
2020/01/11 08:11:58;;;;;;;9.9;6.7;;;;;;;6.25;79.26758;952.5714;;;;
2020/01/11 08:14:23;;;;;;;8.5;6.6;;;;;;;6.35;78.99219;952.5526;;;;
2020/01/11 08:16:48;;;;;;;9.3;6.3;;;;;;;6.41;78.1875;952.4727;;;;
2020/01/11 08:19:13;;;;;;;8.1;6.4;;;;;;;6.45;77.92285;952.4592;;;;
2020/01/11 08:21:38;;;;;;;9.9;6.5;;;;;;;6.46;78.49121;952.5162;;;;
2020/01/11 08:24:04;;;;;;;7.3;6.3;;;;;;;6.44;78.98633;952.5712;;;;
2020/01/11 08:28:58;;;;;;;8.4;6.4;;;;;;;6.47;78.52734;952.5553;;;;
2020/01/11 08:31:41;;;;;;;7.7;6.4;;;;;;;6.42;78.76758;952.5687;;;;
2020/01/11 08:36:16;;;;;;;11.4;6.5;;;;;;;6.49;78.73438;952.6376;;;;
2020/01/11 08:41:02;;;;;;;9.3;6.3;;;;;;;6.59;77.44043;952.6912;;;;
2020/01/11 08:43:26;;;;;;;9.7;6.7;;;;;;;6.56;78.49805;952.573;;;;
2020/01/11 08:45:51;;;;;;;6.6;5.9;;;;;;;6.6;77.07031;952.5584;;;;
2020/01/11 08:48:16;;;;;;;7.4;6.2;;;;;;;6.67;77.375;952.5666;;;;
2020/01/11 08:50:41;;;;;;;7.1;5.6;;;;;;;6.7;77.09766;952.4872;;;;
2020/01/11 08:53:06;;;;;;;10.4;6.2;;;;;;;6.77;77.37109;952.3947;;;;
2020/01/11 08:55:31;;;;;;;8.9;6.4;;;;;;;6.82;76.61035;952.4514;;;;
2020/01/11 08:57:57;;;;;;;8.1;6.2;;;;;;;6.86;76.31152;952.3628;;;;
2020/01/11 09:00:22;;;;;;;7.8;5.8;;;;;;;6.94;75.88477;952.3769;;;;
2020/01/11 09:02:48;;;;;;;9.6;6.4;;;;;;;6.96;76.65918;952.4111;;;;
2020/01/11 09:05:13;;;;;;;7.3;5.6;;;;;;;7.15;75.86426;952.4199;;;;
2020/01/11 09:07:39;;;;;;;10.3;6.1;;;;;;;7.33;75.46777;952.327;;;;
2020/01/11 09:10:04;;;;;;;8.1;5.7;;;;;;;7.36;75.17773;952.2789;;;;
2020/01/11 09:12:29;;;;;;;6.4;5.6;;;;;;;7.51;74.77246;952.3382;;;;
2020/01/11 09:14:54;;;;;;;8.2;5.5;;;;;;;7.68;73.80371;952.3306;;;;
2020/01/11 09:17:20;;;;;;;7.3;5.7;;;;;;;7.68;73.83789;952.3292;;;;
2020/01/11 09:19:44;;;;;;;6.9;5;;;;;;;7.79;73.82227;952.4067;;;;
2020/01/11 09:22:09;;;;;;;6.2;5;;;;;;;7.84;72.92383;952.3711;;;;
2020/01/11 09:24:35;;;;;;;5.3;4.7;;;;;;;7.85;72.37109;952.4175;;;;
2020/01/11 09:27:00;;;;;;;6.2;4.8;;;;;;;7.83;72.86523;952.3478;;;;
2020/01/11 09:29:25;;;;;;;7.3;4.9;;;;;;;7.61;74.26953;952.4317;;;;
2020/01/11 09:31:51;;;;;;;5.4;4.7;;;;;;;7.71;73.12891;952.4415;;;;
2020/01/11 09:34:16;;;;;;;6.6;4.8;;;;;;;7.73;72.80371;952.4328;;;;
2020/01/11 09:36:41;;;;;;;5.6;4.9;;;;;;;7.62;73.06738;952.3945;;;;
2020/01/11 09:39:07;;;;;;;6.1;4.9;;;;;;;7.78;72.28906;952.3453;;;;
2020/01/11 09:41:32;;;;;;;6.2;4.9;;;;;;;7.77;71.34766;952.3347;;;;
2020/01/11 09:43:57;;;;;;;5.7;5;;;;;;;7.86;71.06641;952.2856;;;;
2020/01/11 09:46:23;;;;;;;6.7;5.2;;;;;;;8.07;70.39648;952.2509;;;;
2020/01/11 09:48:48;;;;;;;6.4;5.2;;;;;;;8.23;70.37793;952.1689;;;;
2020/01/11 09:51:13;;;;;;;6.3;4.9;;;;;;;8.44;69.26465;952.1459;;;;
2020/01/11 09:53:38;;;;;;;5.6;4.8;;;;;;;8.64;68.36426;952.105;;;;
2020/01/11 09:56:03;;;;;;;5.6;4.6;;;;;;;8.76;67.41602;952.0524;;;;
2020/01/11 09:58:28;;;;;;;6.3;4.8;;;;;;;8.95;67.68457;952.0114;;;;
2020/01/11 10:00:54;;;;;;;5.6;4.8;;;;;;;9.04;67.25684;951.9461;;;;
2020/01/11 10:03:19;;;;;;;5;4.5;;;;;;;9.27;66.3125;952.0056;;;;
2020/01/11 10:05:44;;;;;;;4.9;3.9;;;;;;;9.33;66.12891;951.9403;;;;
2020/01/11 10:08:10;;;;;;;5;4.5;;;;;;;9.02;66.52441;951.9747;;;;
2020/01/11 10:10:35;;;;;;;5.8;4.6;;;;;;;8.84;67.80371;951.9731;;;;
2020/01/11 10:13:00;;;;;;;5.8;4.8;;;;;;;8.86;67.08008;951.9439;;;;
2020/01/11 10:15:25;;;;;;;5.3;4.7;;;;;;;8.74;68.50488;951.9642;;;;
2020/01/11 10:17:50;;;;;;;5.8;4.6;;;;;;;8.86;68.68457;951.9105;;;;
2020/01/11 10:20:16;;;;;;;5.7;3.9;;;;;;;8.54;68.48633;951.8675;;;;
2020/01/11 10:22:41;;;;;;;4.3;3.9;;;;;;;8.62;68.25879;951.8527;;;;
2020/01/11 10:25:06;;;;;;;4.3;3.9;;;;;;;8.64;67.88672;951.8731;;;;
2020/01/11 10:30:00;;;;;;;4.3;3.3;;;;;;;8.45;66.64063;951.6908;;;;
2020/01/11 10:33:22;;;;;;;3.6;3.1;;;;;;;8.51;66.80957;951.8035;;;;
2020/01/11 10:34:47;;;;;;;3.6;3.2;;;;;;;8.67;66.53906;951.6972;;;;
2020/01/11 10:37:12;;;;;;;3.8;3.4;;;;;;;8.75;65.7207;951.6525;;;;
2020/01/11 10:39:37;;;;;;;3.1;2.8;;;;;;;8.91;65.25586;951.6875;;;;
2020/01/11 10:42:04;;;;;;;3.4;3;;;;;;;9.1;65.05762;951.7313;;;;
2020/01/11 10:44:29;;;;;;;3.6;3.3;;;;;;;8.96;65.58301;951.7578;;;;
2020/01/11 10:46:55;;;;;;;4;3.3;;;;;;;8.85;67.5791;951.7234;;;;
2020/01/11 10:49:20;;;;;;;3.6;3.1;;;;;;;9.12;66.64355;951.6741;;;;
2020/01/11 10:51:45;;;;;;;3.8;3.4;;;;;;;9.21;66.18945;951.6414;;;;
2020/01/11 10:54:11;;;;;;;3.4;3;;;;;;;9.23;65.52148;951.6418;;;;
2020/01/11 10:56:36;;;;;;;4.2;3.4;;;;;;;8.95;64.56738;951.6635;;;;
2020/01/11 10:59:01;;;;;;;3.5;3.2;;;;;;;9.2;64.30957;951.4956;;;;
2020/01/11 11:01:26;;;;;;;3.2;2.9;;;;;;;9.34;64.26172;951.5469;;;;
2020/01/11 11:03:51;;;;;;;3.7;2.8;;;;;;;9.06;63.25391;951.5187;;;;
2020/01/11 11:06:16;;;;;;;3.6;2.9;;;;;;;8.94;63.69043;951.5385;;;;
2020/01/11 11:08:41;;;;;;;3.2;2.9;;;;;;;9.05;64.74316;951.4942;;;;
2020/01/11 11:11:07;;;;;;;3.3;2.8;;;;;;;9.08;63.30176;951.4161;;;;
2020/01/11 11:13:33;;;;;;;4.2;3.5;;;;;;;9.23;64.21289;951.3787;;;;
2020/01/11 11:15:59;;;;;;;3.1;2.8;;;;;;;9.12;65.07324;951.4358;;;;
2020/01/11 11:18:26;;;;;;;3;2.6;;;;;;;9.34;63.29395;951.4398;;;;
2020/01/11 11:20:47;;;;;;;3;2.6;;;;;;;9.29;63.21875;951.4102;;;;
2020/01/11 11:23:13;;;;;;;3;2.7;;;;;;;9.38;64.06348;951.4269;;;;
2020/01/11 11:25:38;;;;;;;3.2;2.9;;;;;;;9.52;63.03516;951.4177;;;;
2020/01/11 11:28:03;;;;;;;3.2;2.9;;;;;;;9.68;62.05664;951.3764;;;;
2020/01/11 11:32:54;;;;;;;3.3;2.9;;;;;;;9.72;62.17676;951.3295;;;;
2020/01/11 11:35:19;;;;;;;3.1;2.8;;;;;;;9.72;61.4248;951.3439;;;;
2020/01/11 11:37:44;;;;;;;6.1;3.1;;;;;;;9.7;61.27246;951.2794;;;;
2020/01/11 11:40:09;;;;;;;3.7;3;;;;;;;9.4;61.7666;951.3172;;;;
2020/01/11 11:42:35;;;;;;;4.3;3.9;;;;;;;8.88;64.20605;951.3248;;;;
2020/01/11 11:45:00;;;;;;;3.6;3.3;;;;;;;8.66;63.93457;951.3818;;;;
2020/01/11 11:47:25;;;;;;;3.4;3.1;;;;;;;8.46;64.72363;951.3397;;;;
2020/01/11 11:49:50;;;;;;;3.8;3.4;;;;;;;8.49;64.94336;951.3535;;;;
2020/01/11 11:52:15;;;;;;;3.9;3.3;;;;;;;8.48;65.21289;951.3483;;;;
2020/01/11 11:54:41;;;;;;;4.1;3.6;;;;;;;8.46;66.22168;951.3253;;;;
2020/01/11 11:57:06;;;;;;;4.1;3.3;;;;;;;8.6;65.32324;951.2955;;;;
2020/01/11 11:59:31;;;;;;;3.6;2.8;;;;;;;8.93;63.92773;951.2584;;;;
2020/01/11 12:01:59;;;;;;;3.2;2.9;;;;;;;9.03;64.86621;951.3077;;;;
2020/01/11 12:04:23;;;;;;;3.8;2.7;;;;;;;9.06;62.90039;951.3619;;;;
2020/01/11 12:06:49;;;;;;;3.2;2.8;;;;;;;9.3;62.16113;951.3525;;;;
2020/01/11 12:09:14;;;;;;;4.6;3.2;;;;;;;9.45;61.64941;951.3488;;;;
2020/01/11 12:11:39;;;;;;;3.6;3.1;;;;;;;9.42;61.16602;951.2911;;;;
2020/01/11 12:14:04;;;;;;;4.6;3.5;;;;;;;9.26;61.96289;951.2875;;;;
2020/01/11 12:16:53;;;;;;;3.8;3.1;;;;;;;9.39;61.46875;951.2658;;;;
2020/01/11 12:18:56;;;;;;;3.6;2.9;;;;;;;9.51;60.31348;951.2958;;;;
2020/01/11 12:21:22;;;;;;;3;2.7;;;;;;;9.37;60.62305;951.2255;;;;
2020/01/11 12:23:46;;;;;;;3.5;2.4;;;;;;;9.38;60.92188;951.1559;;;;
2020/01/11 12:26:11;;;;;;;2.3;2.1;;;;;;;8.91;62.77637;951.2761;;;;
2020/01/11 12:28:37;;;;;;;2.7;2.4;;;;;;;8.66;63.8877;951.341;;;;
2020/01/11 12:31:02;;;;;;;3.4;2.9;;;;;;;8.64;64.44238;951.338;;;;
2020/01/11 12:33:27;;;;;;;3.3;2.9;;;;;;;8.41;65.48633;951.2634;;;;
2020/01/11 12:35:52;;;;;;;3.7;3.1;;;;;;;8.51;65.2998;951.2592;;;;
2020/01/11 12:38:17;;;;;;;4;3.1;;;;;;;8.68;64.85645;951.1575;;;;
2020/01/11 12:40:43;;;;;;;4.4;3.2;;;;;;;9.13;64.15234;951.1319;;;;
2020/01/11 12:43:08;;;;;;;4.7;3.2;;;;;;;9.36;63.66211;951.113;;;;
2020/01/11 12:45:33;;;;;;;4.5;3.3;;;;;;;9.25;63.63379;951.0248;;;;
2020/01/11 12:47:58;;;;;;;4.3;3.4;;;;;;;9.42;63.8877;951.0042;;;;
2020/01/11 12:50:24;;;;;;;3.6;2.9;;;;;;;9.58;62.79395;950.9864;;;;
2020/01/11 12:52:49;;;;;;;6.1;4.3;;;;;;;9.9;62.625;950.9515;;;;
2020/01/11 12:55:14;;;;;;;4.5;3.2;;;;;;;9.67;63.39941;950.9037;;;;
2020/01/11 12:57:40;;;;;;;5.3;4;;;;;;;9.96;62.01855;950.8412;;;;
2020/01/11 13:00:05;;;;;;;19.6;5.7;;;;;;;9.41;63.29395;950.8206;;;;
2020/01/11 13:02:30;;;;;;;18.3;3.9;;;;;;;9.35;62.06641;950.8918;;;;
2020/01/11 13:04:55;;;;;;;17.1;3.7;;;;;;;9.09;62.87109;950.8426;;;;
2020/01/11 13:07:20;;;;;;;8.5;4;;;;;;;9.06;62.92383;950.7534;;;;
2020/01/11 13:09:46;;;;;;;4.8;3.8;;;;;;;8.95;62.75879;950.7388;;;;
2020/01/11 13:12:11;;;;;;;3.8;3.2;;;;;;;8.79;63.81836;950.7838;;;;
2020/01/11 13:14:37;;;;;;;4.6;3.2;;;;;;;8.77;63.76855;950.7845;;;;
2020/01/11 13:17:02;;;;;;;4.2;3.1;;;;;;;8.9;63.75391;950.7126;;;;
2020/01/11 13:19:28;;;;;;;5;2.9;;;;;;;8.65;65.11426;950.7603;;;;
2020/01/11 13:21:53;;;;;;;3.7;3.1;;;;;;;8.51;65.41211;950.7531;;;;
2020/01/11 13:24:18;;;;;;;6.8;3.1;;;;;;;8.57;65.30762;950.8064;;;;
2020/01/11 13:26:44;;;;;;;4.9;2.8;;;;;;;8.65;64.53613;950.7463;;;;
2020/01/11 13:29:09;;;;;;;3.3;2.6;;;;;;;8.81;64.05957;950.7467;;;;
2020/01/11 13:31:34;;;;;;;3.3;3;;;;;;;8.78;64.72363;950.8269;;;;
2020/01/11 13:33:59;;;;;;;4.1;3;;;;;;;8.76;64.68848;950.8041;;;;
2020/01/11 13:36:24;;;;;;;7.1;3.1;;;;;;;8.87;64.30664;950.8145;;;;
2020/01/11 13:38:49;;;;;;;5.8;3.5;;;;;;;8.79;63.79297;950.8416;;;;
2020/01/11 13:41:14;;;;;;;6.7;3.8;;;;;;;8.6;64.2666;950.855;;;;
2020/01/11 13:43:40;;;;;;;3.7;3.3;;;;;;;8.31;64.92871;950.8421;;;;
2020/01/11 13:46:05;;;;;;;4.6;3.7;;;;;;;8.15;65.76563;950.9775;;;;
2020/01/11 13:48:31;;;;;;;3.9;3.4;;;;;;;8.09;65.81445;950.981;;;;
2020/01/11 13:50:56;;;;;;;3.9;3.5;;;;;;;8.03;65.99805;951.0276;;;;
2020/01/11 13:53:21;;;;;;;4.8;3.3;;;;;;;7.82;66.51074;950.9856;;;;
2020/01/11 13:55:46;;;;;;;5.4;3.6;;;;;;;7.79;67.07324;951.0319;;;;
2020/01/11 13:58:11;;;;;;;3.6;3.3;;;;;;;7.9;66.85059;950.9792;;;;
2020/01/11 14:00:36;;;;;;;4.7;3.2;;;;;;;7.84;66.39844;951.0015;;;;
2020/01/11 14:03:01;;;;;;;4;3.5;;;;;;;7.38;68.5498;951.0611;;;;
2020/01/11 14:05:26;;;;;;;3.9;3.5;;;;;;;7.63;68.0332;951.0736;;;;
2020/01/11 14:07:51;;;;;;;4.4;3.5;;;;;;;7.65;67.5498;951.0561;;;;
2020/01/11 14:10:16;;;;;;;4.6;3.5;;;;;;;7.68;67.1123;951.1241;;;;
2020/01/11 14:12:42;;;;;;;5.7;3.3;;;;;;;7.69;67.10156;951.1418;;;;
2020/01/11 14:15:07;;;;;;;3.6;3.3;;;;;;;7.63;66.72949;951.1425;;;;
2020/01/11 14:17:32;;;;;;;3.8;3.4;;;;;;;7.49;67.55859;951.0676;;;;
2020/01/11 14:19:57;;;;;;;5.3;4;;;;;;;7.48;67.65918;951.1268;;;;
2020/01/11 14:22:22;;;;;;;4.9;3.8;;;;;;;7.41;67.78516;951.165;;;;
2020/01/11 14:24:47;;;;;;;6.2;3.9;;;;;;;7.23;68.50293;951.0492;;;;
2020/01/11 14:27:12;;;;;;;5.2;3.7;;;;;;;7.36;68.26367;951.111;;;;
2020/01/11 14:29:45;;;;;;;5.5;4.1;;;;;;;7.28;68.43066;951.0528;;;;
2020/01/11 14:33:27;;;;;;;6.1;4.3;;;;;;;7.13;69.34961;950.9941;;;;
2020/01/11 14:34:35;;;;;;;5.7;4.6;;;;;;;7;69.88086;950.961;;;;
2020/01/11 14:36:53;;;;;;;7.5;5;;;;;;;6.9;70.4873;950.9717;;;;
2020/01/11 14:39:18;;;;;;;6.9;4.9;;;;;;;6.86;70.50586;950.9664;;;;
2020/01/11 14:41:43;;;;;;;5.4;4.6;;;;;;;6.78;70.89844;950.9734;;;;
2020/01/11 14:44:08;;;;;;;6;5.3;;;;;;;6.64;71.72266;950.9844;;;;
2020/01/11 14:46:33;;;;;;;7;6;;;;;;;6.63;72.09668;950.9462;;;;
2020/01/11 14:48:59;;;;;;;8.4;6.9;;;;;;;6.62;72.28516;950.9085;;;;
2020/01/11 14:51:24;;;;;;;10.3;7.7;;;;;;;6.75;72.20508;950.9174;;;;
2020/01/11 14:53:49;;;;;;;11.6;8.8;;;;;;;6.81;71.97949;950.8784;;;;
2020/01/11 14:56:14;;;;;;;11.6;8.5;;;;;;;6.86;71.94141;950.8695;;;;
2020/01/11 14:58:39;;;;;;;9.8;8.1;;;;;;;6.9;71.9834;950.8262;;;;
2020/01/11 15:01:04;;;;;;;9.7;8.1;;;;;;;6.9;72.13086;950.8412;;;;
2020/01/11 15:03:29;;;;;;;8.6;7.4;;;;;;;6.87;72.41895;950.8564;;;;
2020/01/11 15:05:56;;;;;;;8.7;7.3;;;;;;;6.85;72.29102;950.8533;;;;
2020/01/11 15:08:21;;;;;;;10.9;8;;;;;;;6.73;72.78125;950.832;;;;
2020/01/11 15:10:46;;;;;;;9.9;7.9;;;;;;;6.63;73.2041;950.7355;;;;
2020/01/11 15:13:12;;;;;;;9;7.9;;;;;;;6.62;72.86426;950.6545;;;;
2020/01/11 15:15:37;;;;;;;9.7;7.9;;;;;;;6.63;72.83203;950.7272;;;;
2020/01/11 15:18:02;;;;;;;11;9.1;;;;;;;6.59;73.27637;950.7314;;;;
2020/01/11 15:20:27;;;;;;;11.1;8.6;;;;;;;6.51;73.3418;950.738;;;;
2020/01/11 15:22:53;;;;;;;11.1;8.9;;;;;;;6.43;73.6123;950.6742;;;;